Terminal Aerodrome Forecast
Issued by NWS

Home | Current Version | Previous Version | Text Only | Print | Product List | Glossary On
Versions: 1 2 3 4 5 6 7 8 9 10 11 12 13 14
986
FTUS45 KTFX 271139 AAA
TAFLWT
TAF AMD
KLWT 271139Z 2712/2812 VRB04KT P6SM SCT015 BKN030
     FM271400 29010KT P6SM SCT008 BKN025
     FM271900 30010KT P6SM -SHRA SCT008 BKN020
     FM280200 28010KT P6SM -SHRASN SCT008 BKN015
     FM280600 27005KT P6SM SCT010 BKN020=

USA.gov is the U.S. government's official web portal to all federal, state and local government web resources and services.